sensor_id;sensor_type;location;lat;lon;timestamp;temperature;humidity
74224;SHT31;62585;49.706;18.216;2023-03-14T00:01:53;13.26;49.43
74224;SHT31;62585;49.706;18.216;2023-03-14T00:04:19;13.23;49.46
74224;SHT31;62585;49.706;18.216;2023-03-14T00:06:45;13.18;49.53
74224;SHT31;62585;49.706;18.216;2023-03-14T00:09:13;13.16;49.65
74224;SHT31;62585;49.706;18.216;2023-03-14T00:11:39;13.18;49.44
74224;SHT31;62585;49.706;18.216;2023-03-14T00:14:05;13.16;49.25
74224;SHT31;62585;49.706;18.216;2023-03-14T00:16:30;13.14;49.41
74224;SHT31;62585;49.706;18.216;2023-03-14T00:18:58;12.95;50.26
74224;SHT31;62585;49.706;18.216;2023-03-14T00:21:24;12.88;50.25
74224;SHT31;62585;49.706;18.216;2023-03-14T00:23:50;12.90;50.32
74224;SHT31;62585;49.706;18.216;2023-03-14T00:26:19;12.86;50.48
74224;SHT31;62585;49.706;18.216;2023-03-14T00:28:45;13.09;49.45
74224;SHT31;62585;49.706;18.216;2023-03-14T00:31:14;13.10;49.56
74224;SHT31;62585;49.706;18.216;2023-03-14T00:33:41;13.17;49.24
74224;SHT31;62585;49.706;18.216;2023-03-14T00:36:10;13.28;49.05
74224;SHT31;62585;49.706;18.216;2023-03-14T00:38:38;13.30;48.69
74224;SHT31;62585;49.706;18.216;2023-03-14T00:41:13;13.44;48.31
74224;SHT31;62585;49.706;18.216;2023-03-14T00:43:39;13.36;48.65
74224;SHT31;62585;49.706;18.216;2023-03-14T00:46:05;13.34;48.83
74224;SHT31;62585;49.706;18.216;2023-03-14T00:48:31;13.34;48.39
74224;SHT31;62585;49.706;18.216;2023-03-14T00:50:57;13.26;48.65
74224;SHT31;62585;49.706;18.216;2023-03-14T00:53:26;13.27;48.43
74224;SHT31;62585;49.706;18.216;2023-03-14T00:55:51;13.21;48.72
74224;SHT31;62585;49.706;18.216;2023-03-14T00:58:18;13.30;48.38
74224;SHT31;62585;49.706;18.216;2023-03-14T01:00:44;13.37;48.25
74224;SHT31;62585;49.706;18.216;2023-03-14T01:03:11;13.30;48.25
74224;SHT31;62585;49.706;18.216;2023-03-14T01:05:37;13.28;48.16
74224;SHT31;62585;49.706;18.216;2023-03-14T01:08:05;13.26;48.37
74224;SHT31;62585;49.706;18.216;2023-03-14T01:10:32;13.37;47.81
74224;SHT31;62585;49.706;18.216;2023-03-14T01:12:58;13.55;47.23
74224;SHT31;62585;49.706;18.216;2023-03-14T01:15:24;13.51;47.58
74224;SHT31;62585;49.706;18.216;2023-03-14T01:17:50;13.36;47.95
74224;SHT31;62585;49.706;18.216;2023-03-14T01:20:16;13.10;48.83
74224;SHT31;62585;49.706;18.216;2023-03-14T01:22:43;13.07;49.09
74224;SHT31;62585;49.706;18.216;2023-03-14T01:25:12;12.97;49.01
74224;SHT31;62585;49.706;18.216;2023-03-14T01:27:38;13.16;48.33
74224;SHT31;62585;49.706;18.216;2023-03-14T01:30:04;13.27;48.25
74224;SHT31;62585;49.706;18.216;2023-03-14T01:32:31;13.28;47.97
74224;SHT31;62585;49.706;18.216;2023-03-14T01:34:56;13.34;48.11
74224;SHT31;62585;49.706;18.216;2023-03-14T01:37:22;13.20;48.04
74224;SHT31;62585;49.706;18.216;2023-03-14T01:39:48;13.28;47.80
74224;SHT31;62585;49.706;18.216;2023-03-14T01:42:15;13.40;47.56
74224;SHT31;62585;49.706;18.216;2023-03-14T01:44:53;13.33;47.48
74224;SHT31;62585;49.706;18.216;2023-03-14T01:47:19;13.28;47.56
74224;SHT31;62585;49.706;18.216;2023-03-14T01:49:46;13.33;47.44
74224;SHT31;62585;49.706;18.216;2023-03-14T01:52:24;13.20;48.20
74224;SHT31;62585;49.706;18.216;2023-03-14T01:54:58;13.14;48.09
74224;SHT31;62585;49.706;18.216;2023-03-14T01:57:29;13.18;48.15
74224;SHT31;62585;49.706;18.216;2023-03-14T02:00:07;13.10;48.50
74224;SHT31;62585;49.706;18.216;2023-03-14T02:02:37;13.02;48.88
74224;SHT31;62585;49.706;18.216;2023-03-14T02:05:05;13.00;49.06
74224;SHT31;62585;49.706;18.216;2023-03-14T02:07:50;12.85;49.62
74224;SHT31;62585;49.706;18.216;2023-03-14T02:12:53;12.85;49.87
74224;SHT31;62585;49.706;18.216;2023-03-14T02:15:23;12.90;49.64
74224;SHT31;62585;49.706;18.216;2023-03-14T02:17:49;12.88;49.76
74224;SHT31;62585;49.706;18.216;2023-03-14T02:20:30;12.90;49.71
74224;SHT31;62585;49.706;18.216;2023-03-14T02:22:59;12.92;49.83
74224;SHT31;62585;49.706;18.216;2023-03-14T02:25:42;13.04;49.24
74224;SHT31;62585;49.706;18.216;2023-03-14T02:28:09;12.97;49.56
74224;SHT31;62585;49.706;18.216;2023-03-14T02:30:35;12.92;49.73
74224;SHT31;62585;49.706;18.216;2023-03-14T02:33:08;12.95;49.65
74224;SHT31;62585;49.706;18.216;2023-03-14T02:35:40;13.00;49.39
74224;SHT31;62585;49.706;18.216;2023-03-14T02:40:46;12.99;49.17
74224;SHT31;62585;49.706;18.216;2023-03-14T02:43:12;12.86;49.50
74224;SHT31;62585;49.706;18.216;2023-03-14T02:45:42;12.80;49.77
74224;SHT31;62585;49.706;18.216;2023-03-14T02:48:18;12.75;50.03
74224;SHT31;62585;49.706;18.216;2023-03-14T02:50:47;12.73;49.85
74224;SHT31;62585;49.706;18.216;2023-03-14T02:53:17;12.68;49.78
74224;SHT31;62585;49.706;18.216;2023-03-14T02:55:49;12.59;50.69
74224;SHT31;62585;49.706;18.216;2023-03-14T02:58:16;12.51;50.61
74224;SHT31;62585;49.706;18.216;2023-03-14T03:00:42;12.41;51.17
74224;SHT31;62585;49.706;18.216;2023-03-14T03:03:08;12.38;50.82
74224;SHT31;62585;49.706;18.216;2023-03-14T03:05:34;12.41;51.02
74224;SHT31;62585;49.706;18.216;2023-03-14T03:08:00;12.38;51.12
74224;SHT31;62585;49.706;18.216;2023-03-14T03:10:27;12.34;51.62
74224;SHT31;62585;49.706;18.216;2023-03-14T03:12:52;12.30;52.09
74224;SHT31;62585;49.706;18.216;2023-03-14T03:15:18;12.27;52.20
74224;SHT31;62585;49.706;18.216;2023-03-14T03:17:44;12.17;52.63
74224;SHT31;62585;49.706;18.216;2023-03-14T03:20:10;12.13;52.83
74224;SHT31;62585;49.706;18.216;2023-03-14T03:22:36;12.07;53.24
74224;SHT31;62585;49.706;18.216;2023-03-14T03:25:04;11.96;53.45
74224;SHT31;62585;49.706;18.216;2023-03-14T03:27:31;11.97;53.49
74224;SHT31;62585;49.706;18.216;2023-03-14T03:29:57;11.94;53.78
74224;SHT31;62585;49.706;18.216;2023-03-14T03:32:23;11.87;54.01
74224;SHT31;62585;49.706;18.216;2023-03-14T03:34:52;11.83;54.07
74224;SHT31;62585;49.706;18.216;2023-03-14T03:37:18;11.87;53.52
74224;SHT31;62585;49.706;18.216;2023-03-14T03:39:44;11.87;53.80
74224;SHT31;62585;49.706;18.216;2023-03-14T03:42:10;11.84;53.92
74224;SHT31;62585;49.706;18.216;2023-03-14T03:44:36;11.79;53.95
74224;SHT31;62585;49.706;18.216;2023-03-14T03:47:02;11.79;53.82
74224;SHT31;62585;49.706;18.216;2023-03-14T03:49:31;11.69;54.52
74224;SHT31;62585;49.706;18.216;2023-03-14T03:51:58;11.72;53.95
74224;SHT31;62585;49.706;18.216;2023-03-14T03:54:24;11.72;54.09
74224;SHT31;62585;49.706;18.216;2023-03-14T03:56:50;11.65;54.53
74224;SHT31;62585;49.706;18.216;2023-03-14T03:59:16;11.65;54.45
74224;SHT31;62585;49.706;18.216;2023-03-14T04:01:42;11.59;54.82
74224;SHT31;62585;49.706;18.216;2023-03-14T04:04:08;11.55;54.62
74224;SHT31;62585;49.706;18.216;2023-03-14T04:06:34;11.56;54.68
74224;SHT31;62585;49.706;18.216;2023-03-14T04:09:00;11.54;54.85
74224;SHT31;62585;49.706;18.216;2023-03-14T04:11:26;11.51;54.87
74224;SHT31;62585;49.706;18.216;2023-03-14T04:13:52;11.42;55.17
74224;SHT31;62585;49.706;18.216;2023-03-14T04:16:20;11.31;55.42
74224;SHT31;62585;49.706;18.216;2023-03-14T04:18:47;11.35;55.32
74224;SHT31;62585;49.706;18.216;2023-03-14T04:21:12;11.35;55.20
74224;SHT31;62585;49.706;18.216;2023-03-14T04:23:38;11.34;55.23
74224;SHT31;62585;49.706;18.216;2023-03-14T04:26:04;11.32;55.41
74224;SHT31;62585;49.706;18.216;2023-03-14T04:28:30;11.24;55.62
74224;SHT31;62585;49.706;18.216;2023-03-14T04:30:56;11.27;55.77
74224;SHT31;62585;49.706;18.216;2023-03-14T04:33:22;11.12;56.23
74224;SHT31;62585;49.706;18.216;2023-03-14T04:35:47;11.06;56.48
74224;SHT31;62585;49.706;18.216;2023-03-14T04:38:15;11.17;55.87
74224;SHT31;62585;49.706;18.216;2023-03-14T04:40:42;11.18;55.77
74224;SHT31;62585;49.706;18.216;2023-03-14T04:43:08;11.17;55.79
74224;SHT31;62585;49.706;18.216;2023-03-14T04:45:35;11.15;55.73
74224;SHT31;62585;49.706;18.216;2023-03-14T04:48:01;11.10;56.01
74224;SHT31;62585;49.706;18.216;2023-03-14T04:50:27;11.14;55.43
74224;SHT31;62585;49.706;18.216;2023-03-14T04:52:53;11.15;55.67
74224;SHT31;62585;49.706;18.216;2023-03-14T04:55:18;11.18;55.51
74224;SHT31;62585;49.706;18.216;2023-03-14T04:57:44;11.14;55.67
74224;SHT31;62585;49.706;18.216;2023-03-14T05:00:11;11.18;55.70
74224;SHT31;62585;49.706;18.216;2023-03-14T05:02:37;11.03;56.16
74224;SHT31;62585;49.706;18.216;2023-03-14T05:05:03;11.06;55.94
74224;SHT31;62585;49.706;18.216;2023-03-14T05:07:29;11.11;55.79
74224;SHT31;62585;49.706;18.216;2023-03-14T05:09:54;11.07;56.20
74224;SHT31;62585;49.706;18.216;2023-03-14T05:12:20;11.04;56.38
74224;SHT31;62585;49.706;18.216;2023-03-14T05:14:46;11.03;56.23
74224;SHT31;62585;49.706;18.216;2023-03-14T05:17:12;11.03;56.44
74224;SHT31;62585;49.706;18.216;2023-03-14T05:19:40;11.12;56.12
74224;SHT31;62585;49.706;18.216;2023-03-14T05:22:06;11.04;56.46
74224;SHT31;62585;49.706;18.216;2023-03-14T05:24:32;10.97;56.96
74224;SHT31;62585;49.706;18.216;2023-03-14T05:26:58;11.01;56.75
74224;SHT31;62585;49.706;18.216;2023-03-14T05:29:24;11.03;56.69
74224;SHT31;62585;49.706;18.216;2023-03-14T05:31:50;11.08;56.71
74224;SHT31;62585;49.706;18.216;2023-03-14T05:34:16;11.14;56.50
74224;SHT31;62585;49.706;18.216;2023-03-14T05:36:41;11.10;56.98
74224;SHT31;62585;49.706;18.216;2023-03-14T05:39:07;11.03;56.97
74224;SHT31;62585;49.706;18.216;2023-03-14T05:41:33;11.04;57.19
74224;SHT31;62585;49.706;18.216;2023-03-14T05:43:59;11.01;57.15
74224;SHT31;62585;49.706;18.216;2023-03-14T05:46:24;11.04;57.03
74224;SHT31;62585;49.706;18.216;2023-03-14T05:48:50;11.08;56.99
74224;SHT31;62585;49.706;18.216;2023-03-14T05:51:16;11.07;57.06
74224;SHT31;62585;49.706;18.216;2023-03-14T05:53:42;11.11;56.86
74224;SHT31;62585;49.706;18.216;2023-03-14T05:56:08;11.15;56.78
74224;SHT31;62585;49.706;18.216;2023-03-14T05:58:34;11.15;56.64
74224;SHT31;62585;49.706;18.216;2023-03-14T06:01:04;11.27;56.63
74224;SHT31;62585;49.706;18.216;2023-03-14T06:03:31;11.32;56.42
74224;SHT31;62585;49.706;18.216;2023-03-14T06:05:57;11.32;56.01
74224;SHT31;62585;49.706;18.216;2023-03-14T06:08:23;11.29;56.45
74224;SHT31;62585;49.706;18.216;2023-03-14T06:10:49;11.31;56.59
74224;SHT31;62585;49.706;18.216;2023-03-14T06:13:14;11.25;56.70
74224;SHT31;62585;49.706;18.216;2023-03-14T06:15:41;11.27;56.65
74224;SHT31;62585;49.706;18.216;2023-03-14T06:18:07;11.28;56.52
74224;SHT31;62585;49.706;18.216;2023-03-14T06:20:36;11.27;56.49
74224;SHT31;62585;49.706;18.216;2023-03-14T06:23:05;11.27;56.47
74224;SHT31;62585;49.706;18.216;2023-03-14T06:25:32;11.27;56.71
74224;SHT31;62585;49.706;18.216;2023-03-14T06:27:57;11.27;56.89
74224;SHT31;62585;49.706;18.216;2023-03-14T06:30:23;11.29;56.73
74224;SHT31;62585;49.706;18.216;2023-03-14T06:32:49;11.31;56.82
74224;SHT31;62585;49.706;18.216;2023-03-14T06:35:15;11.28;56.97
74224;SHT31;62585;49.706;18.216;2023-03-14T06:37:41;11.31;56.71
74224;SHT31;62585;49.706;18.216;2023-03-14T06:40:09;11.32;57.18
74224;SHT31;62585;49.706;18.216;2023-03-14T06:42:34;11.35;56.86
74224;SHT31;62585;49.706;18.216;2023-03-14T06:45:00;11.39;56.63
74224;SHT31;62585;49.706;18.216;2023-03-14T06:47:26;11.39;57.34
74224;SHT31;62585;49.706;18.216;2023-03-14T06:49:52;11.40;57.20
74224;SHT31;62585;49.706;18.216;2023-03-14T06:52:17;11.48;56.89
74224;SHT31;62585;49.706;18.216;2023-03-14T06:54:43;11.55;56.96
74224;SHT31;62585;49.706;18.216;2023-03-14T06:57:09;11.52;56.44
74224;SHT31;62585;49.706;18.216;2023-03-14T06:59:35;11.59;56.75
74224;SHT31;62585;49.706;18.216;2023-03-14T07:02:00;11.67;56.64
74224;SHT31;62585;49.706;18.216;2023-03-14T07:04:26;11.67;56.82
74224;SHT31;62585;49.706;18.216;2023-03-14T07:06:52;11.63;56.52
74224;SHT31;62585;49.706;18.216;2023-03-14T07:09:18;11.77;56.72
74224;SHT31;62585;49.706;18.216;2023-03-14T07:11:44;11.98;55.98
74224;SHT31;62585;49.706;18.216;2023-03-14T07:14:10;11.94;56.52
74224;SHT31;62585;49.706;18.216;2023-03-14T07:16:35;11.98;56.05
74224;SHT31;62585;49.706;18.216;2023-03-14T07:19:02;12.07;55.83
74224;SHT31;62585;49.706;18.216;2023-03-14T07:21:28;12.17;55.83
74224;SHT31;62585;49.706;18.216;2023-03-14T07:23:54;12.25;55.62
74224;SHT31;62585;49.706;18.216;2023-03-14T07:26:20;12.41;55.52
74224;SHT31;62585;49.706;18.216;2023-03-14T07:28:46;12.31;55.28
74224;SHT31;62585;49.706;18.216;2023-03-14T07:31:11;12.42;55.27
74224;SHT31;62585;49.706;18.216;2023-03-14T07:33:38;12.49;55.32
74224;SHT31;62585;49.706;18.216;2023-03-14T07:36:04;12.46;55.32
74224;SHT31;62585;49.706;18.216;2023-03-14T07:38:30;12.51;55.06
74224;SHT31;62585;49.706;18.216;2023-03-14T07:41:03;12.49;54.63
74224;SHT31;62585;49.706;18.216;2023-03-14T07:43:30;12.49;55.31
74224;SHT31;62585;49.706;18.216;2023-03-14T07:45:56;12.61;55.24
74224;SHT31;62585;49.706;18.216;2023-03-14T07:48:22;12.75;55.42
74224;SHT31;62585;49.706;18.216;2023-03-14T07:50:51;12.88;54.33
74224;SHT31;62585;49.706;18.216;2023-03-14T07:53:18;12.97;54.69
74224;SHT31;62585;49.706;18.216;2023-03-14T07:55:44;12.93;54.39
74224;SHT31;62585;49.706;18.216;2023-03-14T07:58:10;12.82;54.73
74224;SHT31;62585;49.706;18.216;2023-03-14T08:00:35;12.89;55.17
74224;SHT31;62585;49.706;18.216;2023-03-14T08:03:01;12.72;55.21
74224;SHT31;62585;49.706;18.216;2023-03-14T08:05:28;12.55;55.60
74224;SHT31;62585;49.706;18.216;2023-03-14T08:07:54;12.51;56.16
74224;SHT31;62585;49.706;18.216;2023-03-14T08:10:19;12.44;56.42
74224;SHT31;62585;49.706;18.216;2023-03-14T08:12:54;12.37;56.71
74224;SHT31;62585;49.706;18.216;2023-03-14T08:15:20;12.37;56.90
74224;SHT31;62585;49.706;18.216;2023-03-14T08:17:46;12.35;56.32
74224;SHT31;62585;49.706;18.216;2023-03-14T08:20:24;12.38;57.34
74224;SHT31;62585;49.706;18.216;2023-03-14T08:22:50;12.52;57.13
74224;SHT31;62585;49.706;18.216;2023-03-14T08:25:16;12.51;56.46
74224;SHT31;62585;49.706;18.216;2023-03-14T08:27:43;12.52;56.91
74224;SHT31;62585;49.706;18.216;2023-03-14T08:30:14;12.45;56.78
74224;SHT31;62585;49.706;18.216;2023-03-14T08:32:41;12.56;56.38
74224;SHT31;62585;49.706;18.216;2023-03-14T08:35:07;12.75;55.81
74224;SHT31;62585;49.706;18.216;2023-03-14T08:37:34;13.00;55.96
74224;SHT31;62585;49.706;18.216;2023-03-14T08:40:00;13.10;54.90
74224;SHT31;62585;49.706;18.216;2023-03-14T08:42:26;13.04;55.23
74224;SHT31;62585;49.706;18.216;2023-03-14T08:44:52;12.99;55.00
74224;SHT31;62585;49.706;18.216;2023-03-14T08:47:18;12.97;56.01
74224;SHT31;62585;49.706;18.216;2023-03-14T08:49:44;13.02;55.95
74224;SHT31;62585;49.706;18.216;2023-03-14T08:52:10;13.21;55.80
74224;SHT31;62585;49.706;18.216;2023-03-14T08:54:35;13.09;55.40
74224;SHT31;62585;49.706;18.216;2023-03-14T08:57:01;13.11;55.96
74224;SHT31;62585;49.706;18.216;2023-03-14T08:59:27;13.21;55.17
74224;SHT31;62585;49.706;18.216;2023-03-14T09:01:53;13.18;55.95
74224;SHT31;62585;49.706;18.216;2023-03-14T09:04:20;13.14;56.16
74224;SHT31;62585;49.706;18.216;2023-03-14T09:06:46;13.09;56.11
74224;SHT31;62585;49.706;18.216;2023-03-14T09:09:11;13.02;55.67
74224;SHT31;62585;49.706;18.216;2023-03-14T09:11:39;12.92;55.99
74224;SHT31;62585;49.706;18.216;2023-03-14T09:14:05;12.92;55.32
74224;SHT31;62585;49.706;18.216;2023-03-14T09:16:31;12.82;56.35
74224;SHT31;62585;49.706;18.216;2023-03-14T09:18:58;12.78;55.72
74224;SHT31;62585;49.706;18.216;2023-03-14T09:21:28;12.80;56.55
74224;SHT31;62585;49.706;18.216;2023-03-14T09:23:54;12.79;56.39
74224;SHT31;62585;49.706;18.216;2023-03-14T09:26:20;12.68;56.03
74224;SHT31;62585;49.706;18.216;2023-03-14T09:28:45;12.68;56.26
74224;SHT31;62585;49.706;18.216;2023-03-14T09:31:12;12.66;56.26
74224;SHT31;62585;49.706;18.216;2023-03-14T09:33:38;12.69;56.24
74224;SHT31;62585;49.706;18.216;2023-03-14T09:36:05;12.62;56.72
74224;SHT31;62585;49.706;18.216;2023-03-14T09:38:31;12.65;56.78
74224;SHT31;62585;49.706;18.216;2023-03-14T09:41:00;12.62;56.77
74224;SHT31;62585;49.706;18.216;2023-03-14T09:43:29;12.63;57.04
74224;SHT31;62585;49.706;18.216;2023-03-14T09:45:57;12.56;57.82
74224;SHT31;62585;49.706;18.216;2023-03-14T09:48:30;12.55;57.27
74224;SHT31;62585;49.706;18.216;2023-03-14T09:50:58;12.65;57.19
74224;SHT31;62585;49.706;18.216;2023-03-14T09:53:53;12.61;57.34
74224;SHT31;62585;49.706;18.216;2023-03-14T09:56:30;12.61;57.09
74224;SHT31;62585;49.706;18.216;2023-03-14T09:59:00;12.53;57.43
74224;SHT31;62585;49.706;18.216;2023-03-14T10:01:28;12.49;57.42
74224;SHT31;62585;49.706;18.216;2023-03-14T10:03:56;12.53;57.61
74224;SHT31;62585;49.706;18.216;2023-03-14T10:06:27;12.48;58.32
74224;SHT31;62585;49.706;18.216;2023-03-14T10:08:54;12.46;58.53
74224;SHT31;62585;49.706;18.216;2023-03-14T10:11:21;12.41;58.27
74224;SHT31;62585;49.706;18.216;2023-03-14T10:16:30;12.35;59.10
74224;SHT31;62585;49.706;18.216;2023-03-14T10:19:02;12.37;59.00
74224;SHT31;62585;49.706;18.216;2023-03-14T10:21:30;12.31;59.25
74224;SHT31;62585;49.706;18.216;2023-03-14T10:24:29;12.38;59.12
74224;SHT31;62585;49.706;18.216;2023-03-14T10:27:00;12.41;59.22
74224;SHT31;62585;49.706;18.216;2023-03-14T10:29:30;12.52;58.68
74224;SHT31;62585;49.706;18.216;2023-03-14T10:32:05;12.61;59.25
74224;SHT31;62585;49.706;18.216;2023-03-14T10:34:38;12.65;58.48
74224;SHT31;62585;49.706;18.216;2023-03-14T10:37:17;12.70;59.19
74224;SHT31;62585;49.706;18.216;2023-03-14T10:39:50;12.73;58.41
74224;SHT31;62585;49.706;18.216;2023-03-14T10:44:50;12.76;59.01
74224;SHT31;62585;49.706;18.216;2023-03-14T10:47:22;12.75;59.50
74224;SHT31;62585;49.706;18.216;2023-03-14T10:49:49;12.90;59.26
74224;SHT31;62585;49.706;18.216;2023-03-14T10:52:24;12.95;59.46
74224;SHT31;62585;49.706;18.216;2023-03-14T10:55:01;13.00;59.17
74224;SHT31;62585;49.706;18.216;2023-03-14T10:57:27;12.90;58.63
74224;SHT31;62585;49.706;18.216;2023-03-14T10:59:55;12.89;59.73
74224;SHT31;62585;49.706;18.216;2023-03-14T11:05:31;12.70;60.90
74224;SHT31;62585;49.706;18.216;2023-03-14T11:08:07;12.73;61.50
74224;SHT31;62585;49.706;18.216;2023-03-14T11:10:37;12.63;61.41
74224;SHT31;62585;49.706;18.216;2023-03-14T11:18:32;12.35;63.97
74224;SHT31;62585;49.706;18.216;2023-03-14T11:20:57;12.18;65.39
74224;SHT31;62585;49.706;18.216;2023-03-14T11:26:03;11.83;67.73
74224;SHT31;62585;49.706;18.216;2023-03-14T11:28:47;11.91;69.41
74224;SHT31;62585;49.706;18.216;2023-03-14T11:31:31;11.87;69.86
74224;SHT31;62585;49.706;18.216;2023-03-14T11:39:22;11.70;71.29
74224;SHT31;62585;49.706;18.216;2023-03-14T11:41:54;11.67;71.33
74224;SHT31;62585;49.706;18.216;2023-03-14T11:44:36;11.59;71.37
74224;SHT31;62585;49.706;18.216;2023-03-14T11:47:11;11.58;72.07
74224;SHT31;62585;49.706;18.216;2023-03-14T11:49:45;11.67;72.29
74224;SHT31;62585;49.706;18.216;2023-03-14T11:52:27;11.56;72.03
74224;SHT31;62585;49.706;18.216;2023-03-14T11:55:13;11.62;72.30
74224;SHT31;62585;49.706;18.216;2023-03-14T11:57:41;11.73;71.70
74224;SHT31;62585;49.706;18.216;2023-03-14T12:00:24;11.76;71.58
74224;SHT31;62585;49.706;18.216;2023-03-14T12:03:06;11.82;72.11
74224;SHT31;62585;49.706;18.216;2023-03-14T12:08:46;11.69;72.76
74224;SHT31;62585;49.706;18.216;2023-03-14T12:13:50;11.51;73.53
74224;SHT31;62585;49.706;18.216;2023-03-14T12:18:50;11.35;74.40
74224;SHT31;62585;49.706;18.216;2023-03-14T12:21:16;11.38;74.55
74224;SHT31;62585;49.706;18.216;2023-03-14T12:23:53;11.27;75.13
74224;SHT31;62585;49.706;18.216;2023-03-14T12:26:25;11.27;75.60
74224;SHT31;62585;49.706;18.216;2023-03-14T12:29:15;11.19;76.50
74224;SHT31;62585;49.706;18.216;2023-03-14T12:31:49;11.24;77.16
74224;SHT31;62585;49.706;18.216;2023-03-14T12:45:22;11.06;78.60
74224;SHT31;62585;49.706;18.216;2023-03-14T12:47:54;11.00;79.31
74224;SHT31;62585;49.706;18.216;2023-03-14T12:50:56;10.88;79.98
74224;SHT31;62585;49.706;18.216;2023-03-14T13:04:36;10.52;82.76
74224;SHT31;62585;49.706;18.216;2023-03-14T13:07:03;10.55;83.15
74224;SHT31;62585;49.706;18.216;2023-03-14T13:12:02;10.53;83.49
74224;SHT31;62585;49.706;18.216;2023-03-14T13:14:30;10.50;84.27
74224;SHT31;62585;49.706;18.216;2023-03-14T13:16:59;10.41;84.03
74224;SHT31;62585;49.706;18.216;2023-03-14T13:19:27;10.49;84.72
74224;SHT31;62585;49.706;18.216;2023-03-14T13:22:05;10.39;84.36
74224;SHT31;62585;49.706;18.216;2023-03-14T13:24:34;10.29;84.85
74224;SHT31;62585;49.706;18.216;2023-03-14T13:27:00;10.35;85.40
74224;SHT31;62585;49.706;18.216;2023-03-14T13:29:30;10.33;85.29
74224;SHT31;62585;49.706;18.216;2023-03-14T13:32:12;10.26;84.83
74224;SHT31;62585;49.706;18.216;2023-03-14T13:34:40;10.35;85.26
74224;SHT31;62585;49.706;18.216;2023-03-14T13:37:13;10.31;84.48
74224;SHT31;62585;49.706;18.216;2023-03-14T13:39:40;10.25;84.61
74224;SHT31;62585;49.706;18.216;2023-03-14T13:42:13;10.28;85.17
74224;SHT31;62585;49.706;18.216;2023-03-14T13:44:40;10.32;84.49
74224;SHT31;62585;49.706;18.216;2023-03-14T13:47:18;10.35;84.55
74224;SHT31;62585;49.706;18.216;2023-03-14T13:49:45;10.41;84.78
74224;SHT31;62585;49.706;18.216;2023-03-14T13:52:28;10.42;85.03
74224;SHT31;62585;49.706;18.216;2023-03-14T13:54:57;10.43;84.35
74224;SHT31;62585;49.706;18.216;2023-03-14T13:57:25;10.46;84.39
74224;SHT31;62585;49.706;18.216;2023-03-14T14:00:04;10.42;84.52
74224;SHT31;62585;49.706;18.216;2023-03-14T14:02:35;10.43;83.31
74224;SHT31;62585;49.706;18.216;2023-03-14T14:05:03;10.45;83.09
74224;SHT31;62585;49.706;18.216;2023-03-14T14:07:29;10.50;82.61
74224;SHT31;62585;49.706;18.216;2023-03-14T14:09:56;10.60;82.54
74224;SHT31;62585;49.706;18.216;2023-03-14T14:15:07;10.67;81.80
74224;SHT31;62585;49.706;18.216;2023-03-14T14:20:04;10.73;81.87
74224;SHT31;62585;49.706;18.216;2023-03-14T14:22:31;10.81;81.81
74224;SHT31;62585;49.706;18.216;2023-03-14T14:24:58;10.74;81.65
74224;SHT31;62585;49.706;18.216;2023-03-14T14:27:38;10.80;81.81
74224;SHT31;62585;49.706;18.216;2023-03-14T14:30:29;10.84;81.36
74224;SHT31;62585;49.706;18.216;2023-03-14T14:33:11;10.83;81.81
74224;SHT31;62585;49.706;18.216;2023-03-14T14:35:37;10.85;81.10
74224;SHT31;62585;49.706;18.216;2023-03-14T14:38:12;10.85;80.85
74224;SHT31;62585;49.706;18.216;2023-03-14T14:40:46;10.85;81.17
74224;SHT31;62585;49.706;18.216;2023-03-14T14:43:16;10.87;80.85
74224;SHT31;62585;49.706;18.216;2023-03-14T14:45:44;10.91;80.81
74224;SHT31;62585;49.706;18.216;2023-03-14T14:48:13;10.94;80.61
74224;SHT31;62585;49.706;18.216;2023-03-14T14:50:48;10.96;80.25
74224;SHT31;62585;49.706;18.216;2023-03-14T14:53:30;10.91;80.09
74224;SHT31;62585;49.706;18.216;2023-03-14T14:56:00;11.06;79.69
74224;SHT31;62585;49.706;18.216;2023-03-14T14:58:33;11.03;80.20
74224;SHT31;62585;49.706;18.216;2023-03-14T15:01:22;10.97;80.01
74224;SHT31;62585;49.706;18.216;2023-03-14T15:03:50;10.91;80.66
74224;SHT31;62585;49.706;18.216;2023-03-14T15:06:17;10.93;80.19
74224;SHT31;62585;49.706;18.216;2023-03-14T15:08:45;10.98;80.96
74224;SHT31;62585;49.706;18.216;2023-03-14T15:13:42;10.88;80.21
74224;SHT31;62585;49.706;18.216;2023-03-14T15:16:11;11.03;80.03
74224;SHT31;62585;49.706;18.216;2023-03-14T15:18:37;11.01;79.42
74224;SHT31;62585;49.706;18.216;2023-03-14T15:21:04;11.01;79.47
74224;SHT31;62585;49.706;18.216;2023-03-14T15:23:29;11.04;79.00
74224;SHT31;62585;49.706;18.216;2023-03-14T15:25:55;11.07;78.53
74224;SHT31;62585;49.706;18.216;2023-03-14T15:28:26;11.06;77.77
74224;SHT31;62585;49.706;18.216;2023-03-14T15:30:57;11.07;77.89
74224;SHT31;62585;49.706;18.216;2023-03-14T15:33:24;11.12;76.73
74224;SHT31;62585;49.706;18.216;2023-03-14T15:35:51;11.34;75.93
74224;SHT31;62585;49.706;18.216;2023-03-14T15:38:19;11.27;75.97
74224;SHT31;62585;49.706;18.216;2023-03-14T15:40:49;11.31;74.86
74224;SHT31;62585;49.706;18.216;2023-03-14T15:43:15;11.34;75.34
74224;SHT31;62585;49.706;18.216;2023-03-14T15:45:41;11.48;75.87
74224;SHT31;62585;49.706;18.216;2023-03-14T15:48:15;11.77;74.68
74224;SHT31;62585;49.706;18.216;2023-03-14T15:50:42;11.93;72.84
74224;SHT31;62585;49.706;18.216;2023-03-14T15:53:08;11.97;72.81
74224;SHT31;62585;49.706;18.216;2023-03-14T15:55:34;11.70;73.09
74224;SHT31;62585;49.706;18.216;2023-03-14T15:58:00;11.58;73.12
74224;SHT31;62585;49.706;18.216;2023-03-14T16:00:28;11.48;72.48
74224;SHT31;62585;49.706;18.216;2023-03-14T16:02:54;11.42;72.70
74224;SHT31;62585;49.706;18.216;2023-03-14T16:05:21;11.39;72.81
74224;SHT31;62585;49.706;18.216;2023-03-14T16:07:47;11.29;73.01
74224;SHT31;62585;49.706;18.216;2023-03-14T16:10:14;11.28;72.60
74224;SHT31;62585;49.706;18.216;2023-03-14T16:12:40;11.27;73.09
74224;SHT31;62585;49.706;18.216;2023-03-14T16:15:07;11.22;73.30
74224;SHT31;62585;49.706;18.216;2023-03-14T16:17:33;11.22;73.48
74224;SHT31;62585;49.706;18.216;2023-03-14T16:19:59;11.18;73.60
74224;SHT31;62585;49.706;18.216;2023-03-14T16:22:24;11.18;73.89
74224;SHT31;62585;49.706;18.216;2023-03-14T16:24:50;11.06;74.63
74224;SHT31;62585;49.706;18.216;2023-03-14T16:27:16;11.06;74.70
74224;SHT31;62585;49.706;18.216;2023-03-14T16:29:42;10.93;75.16
74224;SHT31;62585;49.706;18.216;2023-03-14T16:32:08;10.93;75.38